createdAt,value
2022-08-17T00:00:43.478Z,9.13
2022-08-17T00:03:22.248Z,8.73
2022-08-17T00:05:53.759Z,9.10
2022-08-17T00:08:24.143Z,8.50
2022-08-17T00:10:54.131Z,8.52
2022-08-17T00:13:26.524Z,8.57
2022-08-17T00:16:00.617Z,8.90
2022-08-17T00:18:58.300Z,8.85
2022-08-17T00:21:25.377Z,8.48
2022-08-17T00:23:55.488Z,8.77
2022-08-17T00:26:44.397Z,8.68
2022-08-17T00:29:14.908Z,7.85
2022-08-17T00:31:51.014Z,8.70
2022-08-17T00:34:19.836Z,7.55
2022-08-17T00:36:48.331Z,7.90
2022-08-17T00:39:16.983Z,9.02
2022-08-17T00:41:45.642Z,8.27
2022-08-17T00:44:14.808Z,8.27
2022-08-17T00:46:44.862Z,7.90
2022-08-17T00:49:19.525Z,7.97
2022-08-17T00:51:53.972Z,8.15
2022-08-17T00:54:25.286Z,8.63
2022-08-17T00:56:56.370Z,8.43
2022-08-17T00:59:31.033Z,8.48
2022-08-17T01:02:00.392Z,8.68
2022-08-17T01:04:32.577Z,7.45
2022-08-17T01:07:04.766Z,7.38
2022-08-17T01:09:34.232Z,8.45
2022-08-17T01:12:02.931Z,7.75
2022-08-17T01:17:00.894Z,8.38
2022-08-17T01:19:34.424Z,7.65
2022-08-17T01:22:10.194Z,7.93
2022-08-17T01:24:42.987Z,7.57
2022-08-17T01:27:13.557Z,7.85
2022-08-17T01:29:45.715Z,8.15
2022-08-17T01:32:14.398Z,7.43
2022-08-17T01:34:49.485Z,7.97
2022-08-17T01:37:21.813Z,7.68
2022-08-17T01:39:57.366Z,8.00
2022-08-17T01:42:30.968Z,8.70
2022-08-17T01:45:06.386Z,7.20
2022-08-17T01:47:36.012Z,7.70
2022-08-17T01:50:10.382Z,7.20
2022-08-17T01:52:39.225Z,7.88
2022-08-17T01:57:39.092Z,7.97
2022-08-17T02:00:10.425Z,8.40
2022-08-17T02:02:39.607Z,8.05
2022-08-17T02:05:09.195Z,7.55
2022-08-17T02:08:00.036Z,7.70
2022-08-17T02:10:33.663Z,7.78
2022-08-17T02:13:03.598Z,7.75
2022-08-17T02:15:33.636Z,7.53
2022-08-17T02:18:02.743Z,7.57
2022-08-17T02:20:41.226Z,7.18
2022-08-17T02:23:13.369Z,7.00
2022-08-17T02:25:47.851Z,7.63
2022-08-17T02:28:17.480Z,8.13
2022-08-17T02:31:00.144Z,7.90
2022-08-17T02:33:42.259Z,7.43
2022-08-17T02:36:13.598Z,7.50
2022-08-17T02:38:43.261Z,7.45
2022-08-17T02:41:13.670Z,7.68
2022-08-17T02:43:42.563Z,7.88
2022-08-17T02:48:41.409Z,6.95
2022-08-17T02:51:10.101Z,6.88
2022-08-17T02:53:38.668Z,8.00
2022-08-17T02:56:07.742Z,7.82
2022-08-17T03:01:07.787Z,7.40
2022-08-17T03:03:36.944Z,7.70
2022-08-17T03:06:07.795Z,7.15
2022-08-17T03:08:37.601Z,6.93
2022-08-17T03:11:06.153Z,6.80
2022-08-17T03:13:34.892Z,7.13
2022-08-17T03:16:05.357Z,6.97
2022-08-17T03:18:34.085Z,7.05
2022-08-17T03:21:04.785Z,7.55
2022-08-17T03:23:34.080Z,8.02
2022-08-17T03:26:03.085Z,8.00
2022-08-17T03:28:31.801Z,8.18
2022-08-17T03:31:00.441Z,7.53
2022-08-17T03:33:30.489Z,7.20
2022-08-17T03:35:59.586Z,7.70
2022-08-17T03:38:28.233Z,8.20
2022-08-17T03:40:59.790Z,7.97
2022-08-17T03:43:31.079Z,8.07
2022-08-17T03:46:26.971Z,7.85
2022-08-17T03:49:22.699Z,8.90
2022-08-17T03:54:54.780Z,7.38
2022-08-17T03:57:23.512Z,7.97
2022-08-17T03:59:53.028Z,7.72
2022-08-17T04:02:25.584Z,7.10
2022-08-17T04:04:55.734Z,7.03
2022-08-17T04:07:26.024Z,7.75
2022-08-17T04:09:54.914Z,7.60
2022-08-17T04:14:54.934Z,7.47
2022-08-17T04:17:26.243Z,7.80
2022-08-17T04:19:57.032Z,7.97
2022-08-17T04:22:33.318Z,8.38
2022-08-17T04:25:06.513Z,7.80
2022-08-17T04:27:35.190Z,7.88
2022-08-17T04:30:04.563Z,7.35
2022-08-17T04:33:03.471Z,7.57
2022-08-17T04:37:53.468Z,7.45
2022-08-17T04:40:41.397Z,8.02
2022-08-17T04:43:11.811Z,7.77
2022-08-17T04:45:55.342Z,7.60
2022-08-17T04:48:33.388Z,7.40
2022-08-17T04:51:09.878Z,7.93
2022-08-17T04:53:40.326Z,7.43
2022-08-17T04:56:11.809Z,10.32
2022-08-17T04:58:46.508Z,11.52
2022-08-17T05:01:15.466Z,11.68
2022-08-17T05:06:13.756Z,12.43
2022-08-17T05:08:42.817Z,13.43
2022-08-17T05:11:11.684Z,12.00
2022-08-17T05:13:40.365Z,14.35
2022-08-17T05:16:10.508Z,14.27
2022-08-17T05:18:39.664Z,13.65
2022-08-17T05:21:08.661Z,14.88
2022-08-17T05:26:25.604Z,13.50
2022-08-17T05:28:59.654Z,14.57
2022-08-17T05:31:30.129Z,15.88
2022-08-17T05:33:59.114Z,15.15
2022-08-17T05:36:37.966Z,15.75
2022-08-17T05:39:17.329Z,15.32
2022-08-17T05:41:49.382Z,14.93
2022-08-17T05:44:18.638Z,15.80
2022-08-17T05:46:51.429Z,16.00
2022-08-17T05:49:27.301Z,15.35
2022-08-17T05:52:17.153Z,15.93
2022-08-17T05:55:11.175Z,15.85
2022-08-17T05:57:57.079Z,15.73
2022-08-17T06:00:30.728Z,13.52
2022-08-17T06:03:12.131Z,14.45
2022-08-17T06:06:03.483Z,13.77
2022-08-17T06:08:39.698Z,13.15
2022-08-17T06:11:19.858Z,12.57
2022-08-17T06:14:05.233Z,12.45
2022-08-17T06:16:37.924Z,12.07
2022-08-17T06:19:14.709Z,13.32
2022-08-17T06:21:47.695Z,12.80
2022-08-17T06:24:27.600Z,12.52
2022-08-17T06:27:03.052Z,13.18
2022-08-17T06:29:41.351Z,12.73
2022-08-17T06:32:12.836Z,11.75
2022-08-17T06:34:44.551Z,11.70
2022-08-17T06:37:43.148Z,11.65
2022-08-17T06:40:38.593Z,11.52
2022-08-17T06:43:22.213Z,11.38
2022-08-17T06:45:58.290Z,11.65
2022-08-17T06:48:34.331Z,12.57
2022-08-17T06:51:07.002Z,10.05
2022-08-17T06:53:42.204Z,10.45
2022-08-17T06:56:13.012Z,10.18
2022-08-17T06:58:45.968Z,10.15
2022-08-17T07:01:18.766Z,10.48
2022-08-17T07:03:54.876Z,9.85
2022-08-17T07:06:28.918Z,10.00
2022-08-17T07:09:02.513Z,9.38
2022-08-17T07:11:37.487Z,10.10
2022-08-17T07:14:28.657Z,9.90
2022-08-17T07:16:59.593Z,10.05
2022-08-17T07:19:32.784Z,9.80
2022-08-17T07:22:10.775Z,10.15
2022-08-17T07:24:48.076Z,8.93
2022-08-17T07:27:21.411Z,9.70
2022-08-17T07:29:56.777Z,8.65
2022-08-17T07:32:28.509Z,9.55
2022-08-17T07:35:15.348Z,8.80
2022-08-17T07:37:46.687Z,8.98
2022-08-17T07:40:20.955Z,8.82
2022-08-17T07:43:22.061Z,9.30
2022-08-17T07:46:15.647Z,8.55
2022-08-17T07:48:49.764Z,9.52
2022-08-17T07:51:26.103Z,8.15
2022-08-17T07:54:13.188Z,8.55
2022-08-17T07:56:46.075Z,7.90
2022-08-17T07:59:18.184Z,8.07
2022-08-17T08:02:06.299Z,7.72
2022-08-17T08:07:30.564Z,7.85
2022-08-17T08:10:07.039Z,8.63
2022-08-17T08:12:39.670Z,7.80
2022-08-17T08:15:18.737Z,7.80
2022-08-17T08:17:53.162Z,7.38
2022-08-17T08:20:37.921Z,8.52
2022-08-17T08:23:33.500Z,8.10
2022-08-17T08:26:18.427Z,8.40
2022-08-17T08:28:56.392Z,8.27
2022-08-17T08:31:42.076Z,9.20
2022-08-17T08:34:44.497Z,8.25
2022-08-17T08:37:27.617Z,8.63
2022-08-17T08:40:12.371Z,7.63
2022-08-17T08:42:50.922Z,7.75
2022-08-17T08:45:26.399Z,8.13
2022-08-17T08:48:12.776Z,7.50
2022-08-17T08:51:13.648Z,8.38
2022-08-17T08:53:52.492Z,8.30
2022-08-17T08:56:29.316Z,7.45
2022-08-17T08:59:07.408Z,7.82
2022-08-17T09:01:45.108Z,7.80
2022-08-17T09:04:55.890Z,7.70
2022-08-17T09:07:36.680Z,7.32
2022-08-17T09:10:13.745Z,7.47
2022-08-17T09:12:49.926Z,8.32
2022-08-17T09:15:23.226Z,8.45
2022-08-17T09:19:03.326Z,7.72
2022-08-17T09:21:00.138Z,7.50
2022-08-17T09:23:35.486Z,8.63
2022-08-17T09:26:11.871Z,8.63
2022-08-17T09:28:46.270Z,9.23
2022-08-17T09:31:21.400Z,8.70
2022-08-17T09:33:51.417Z,8.55
2022-08-17T09:36:29.546Z,8.57
2022-08-17T09:39:05.028Z,8.93
2022-08-17T09:41:48.915Z,8.27
2022-08-17T09:44:29.363Z,8.60
2022-08-17T09:47:03.538Z,7.97
2022-08-17T09:49:35.031Z,8.32
2022-08-17T09:52:20.329Z,8.63
2022-08-17T09:54:52.496Z,8.07
2022-08-17T09:57:33.494Z,8.30
2022-08-17T10:00:17.278Z,8.40
2022-08-17T10:03:25.521Z,8.70
2022-08-17T10:06:01.638Z,8.20
2022-08-17T10:08:38.172Z,7.70
2022-08-17T10:11:20.214Z,8.98
2022-08-17T10:13:59.519Z,8.65
2022-08-17T10:16:37.485Z,8.00
2022-08-17T10:19:16.292Z,8.32
2022-08-17T10:25:22.236Z,8.73
2022-08-17T10:27:59.217Z,9.45
2022-08-17T10:30:31.966Z,8.50
2022-08-17T10:33:04.017Z,8.82
2022-08-17T10:35:40.702Z,9.20
2022-08-17T10:38:46.152Z,8.50
2022-08-17T10:41:25.683Z,6.85
2022-08-17T10:44:39.722Z,7.97
2022-08-17T10:47:07.878Z,7.67
2022-08-17T10:49:38.270Z,8.27
2022-08-17T10:52:47.084Z,8.05
2022-08-17T10:55:18.086Z,8.02
2022-08-17T10:57:48.065Z,7.75
2022-08-17T11:01:04.010Z,8.60
2022-08-17T11:03:33.444Z,7.60
2022-08-17T11:06:15.453Z,7.43
2022-08-17T11:09:09.006Z,7.32
2022-08-17T11:11:52.080Z,10.82
2022-08-17T11:14:35.041Z,10.00
2022-08-17T11:17:16.698Z,8.98
2022-08-17T11:20:13.796Z,9.77
2022-08-17T11:23:10.622Z,10.95
2022-08-17T11:25:42.108Z,8.50
2022-08-17T11:28:18.054Z,8.27
2022-08-17T11:30:54.794Z,9.27
2022-08-17T11:33:58.003Z,8.73
2022-08-17T11:37:11.341Z,8.43
2022-08-17T11:40:16.585Z,8.52
2022-08-17T11:43:05.999Z,8.55
2022-08-17T11:46:03.921Z,8.18
2022-08-17T11:48:57.066Z,7.53
2022-08-17T11:52:08.512Z,7.45
2022-08-17T11:54:40.835Z,7.95
2022-08-17T11:58:01.129Z,7.78
2022-08-17T12:00:57.719Z,7.43
2022-08-17T12:03:54.341Z,7.88
2022-08-17T12:06:54.737Z,7.95
2022-08-17T12:09:26.535Z,7.40
2022-08-17T12:12:12.984Z,7.95
2022-08-17T12:17:40.555Z,7.45
2022-08-17T12:20:24.281Z,7.88
2022-08-17T12:23:04.523Z,7.63
2022-08-17T12:25:39.476Z,8.48
2022-08-17T12:28:22.934Z,7.78
2022-08-17T12:30:53.019Z,7.07
2022-08-17T12:33:28.499Z,7.70
2022-08-17T12:36:03.198Z,7.90
2022-08-17T12:38:36.323Z,7.35
2022-08-17T12:41:22.279Z,7.45
2022-08-17T12:44:02.413Z,8.35
2022-08-17T12:46:36.127Z,8.45
2022-08-17T12:49:28.130Z,7.63
2022-08-17T12:52:07.569Z,7.70
2022-08-17T12:54:46.873Z,8.05
2022-08-17T12:57:18.056Z,7.28
2022-08-17T12:59:51.754Z,7.93
2022-08-17T13:02:29.298Z,8.10
2022-08-17T13:04:59.900Z,7.43
2022-08-17T13:07:35.258Z,7.68
2022-08-17T13:10:06.333Z,7.30
2022-08-17T13:12:37.212Z,8.43
2022-08-17T13:15:06.818Z,7.45
2022-08-17T13:17:37.558Z,7.85
2022-08-17T13:20:15.981Z,8.13
2022-08-17T13:22:45.221Z,8.23
2022-08-17T13:25:18.276Z,8.32
2022-08-17T13:27:49.509Z,7.78
2022-08-17T13:30:23.966Z,7.63
2022-08-17T13:32:54.058Z,7.53
2022-08-17T13:35:36.463Z,7.72
2022-08-17T13:38:11.337Z,7.70
2022-08-17T13:40:52.047Z,7.88
2022-08-17T13:43:45.135Z,7.85
2022-08-17T13:46:21.283Z,8.23
2022-08-17T13:49:01.079Z,8.52
2022-08-17T13:51:32.686Z,8.38
2022-08-17T13:54:09.019Z,7.80
2022-08-17T13:56:52.822Z,8.45
2022-08-17T13:59:52.493Z,8.23
2022-08-17T14:02:21.127Z,8.20
2022-08-17T14:04:50.423Z,8.20
2022-08-17T14:07:29.937Z,8.23
2022-08-17T14:10:01.301Z,8.38
2022-08-17T14:12:35.207Z,7.40
2022-08-17T14:15:04.834Z,9.90
2022-08-17T14:17:38.126Z,9.35
2022-08-17T14:20:10.717Z,9.02
2022-08-17T14:22:42.299Z,9.63
2022-08-17T14:25:14.086Z,8.65
2022-08-17T14:27:52.924Z,9.57
2022-08-17T14:30:25.088Z,10.65
2022-08-17T14:32:54.745Z,18.67
2022-08-17T14:35:25.049Z,18.75
2022-08-17T14:37:54.414Z,17.15
2022-08-17T14:40:25.034Z,15.55
2022-08-17T14:42:57.766Z,15.30
2022-08-17T14:45:32.708Z,15.38
2022-08-17T14:48:05.871Z,14.57
2022-08-17T14:50:36.137Z,14.45
2022-08-17T14:53:07.034Z,14.55
2022-08-17T14:55:37.038Z,14.57
2022-08-17T14:58:07.090Z,14.65
2022-08-17T15:00:36.638Z,13.68
2022-08-17T15:03:05.897Z,14.20
2022-08-17T15:05:36.916Z,14.02
2022-08-17T15:08:07.193Z,12.32
2022-08-17T15:10:36.651Z,12.77
2022-08-17T15:13:20.032Z,12.77
2022-08-17T15:15:49.102Z,10.65
2022-08-17T15:18:17.896Z,12.55
2022-08-17T15:20:48.825Z,11.70
2022-08-17T15:23:19.909Z,11.07
2022-08-17T15:25:50.262Z,11.27
2022-08-17T15:28:22.954Z,11.38
2022-08-17T15:30:52.684Z,10.43
2022-08-17T15:33:29.301Z,10.02
2022-08-17T15:35:59.994Z,9.88
2022-08-17T15:38:29.112Z,10.30
2022-08-17T15:40:58.627Z,10.68
2022-08-17T15:43:32.614Z,9.75
2022-08-17T15:46:03.237Z,10.35
2022-08-17T15:48:42.333Z,10.60
2022-08-17T15:51:13.917Z,10.93
2022-08-17T15:53:44.205Z,10.25
2022-08-17T15:56:13.772Z,10.02
2022-08-17T15:58:45.156Z,10.48
2022-08-17T16:01:18.292Z,9.60
2022-08-17T16:04:03.905Z,10.73
2022-08-17T16:06:36.088Z,10.15
2022-08-17T16:09:04.743Z,9.82
2022-08-17T16:11:33.390Z,10.18
2022-08-17T16:14:03.633Z,10.18
2022-08-17T16:16:32.946Z,10.30
2022-08-17T16:19:01.843Z,9.35
2022-08-17T16:21:31.293Z,9.95
2022-08-17T16:24:13.626Z,9.70
2022-08-17T16:26:43.910Z,10.02
2022-08-17T16:31:42.616Z,9.38
2022-08-17T16:34:17.799Z,9.70
2022-08-17T16:36:55.080Z,11.10
2022-08-17T16:39:25.402Z,9.88
2022-08-17T16:41:53.846Z,10.68
2022-08-17T16:44:23.969Z,11.75
2022-08-17T16:46:52.645Z,11.27
2022-08-17T16:49:35.706Z,15.27
2022-08-17T16:52:06.501Z,18.45
2022-08-17T16:54:35.679Z,17.15
2022-08-17T16:57:05.665Z,19.35
2022-08-17T16:59:42.385Z,20.73
2022-08-17T17:02:17.790Z,19.98
2022-08-17T17:04:53.712Z,19.75
2022-08-17T17:07:39.096Z,18.25
2022-08-17T17:10:12.012Z,18.45
2022-08-17T17:13:01.041Z,16.92
2022-08-17T17:15:44.742Z,18.65
2022-08-17T17:18:15.520Z,18.13
2022-08-17T17:20:53.860Z,17.65
2022-08-17T17:23:38.707Z,18.90
2022-08-17T17:26:21.412Z,15.50
2022-08-17T17:29:00.873Z,16.92
2022-08-17T17:31:38.503Z,15.25
2022-08-17T17:34:11.429Z,16.48
2022-08-17T17:36:43.386Z,16.23
2022-08-17T17:39:20.212Z,16.13
2022-08-17T17:41:53.342Z,15.05
2022-08-17T17:44:28.856Z,16.75
2022-08-17T17:47:01.211Z,16.27
2022-08-17T17:49:35.533Z,14.82
2022-08-17T17:52:18.441Z,15.48
2022-08-17T17:54:56.922Z,14.73
2022-08-17T17:57:37.194Z,15.32
2022-08-17T18:00:13.912Z,14.77
2022-08-17T18:02:57.458Z,13.63
2022-08-17T18:05:57.849Z,13.43
2022-08-17T18:08:43.185Z,13.95
2022-08-17T18:11:34.952Z,14.73
2022-08-17T18:14:18.826Z,14.52
2022-08-17T18:16:48.192Z,13.40
2022-08-17T18:19:20.864Z,13.68
2022-08-17T18:21:54.037Z,13.30
2022-08-17T18:24:31.349Z,13.20
2022-08-17T18:27:01.916Z,12.90
2022-08-17T18:29:44.522Z,13.32
2022-08-17T18:32:29.226Z,14.27
2022-08-17T18:35:02.142Z,13.57
2022-08-17T18:37:41.503Z,13.52
2022-08-17T18:40:30.462Z,13.10
2022-08-17T18:43:04.919Z,13.25
2022-08-17T18:45:40.943Z,12.60
2022-08-17T18:48:24.104Z,11.98
2022-08-17T18:50:57.212Z,11.90
2022-08-17T18:53:36.409Z,11.73
2022-08-17T18:56:22.232Z,12.27
2022-08-17T18:59:13.726Z,12.57
2022-08-17T19:01:53.459Z,12.27
2022-08-17T19:04:33.372Z,11.77
2022-08-17T19:07:08.888Z,11.60
2022-08-17T19:09:43.812Z,11.82
2022-08-17T19:12:27.128Z,11.93
2022-08-17T19:14:58.385Z,12.40
2022-08-17T19:17:35.528Z,11.95
2022-08-17T19:20:11.579Z,11.43
2022-08-17T19:23:05.332Z,11.18
2022-08-17T19:25:37.377Z,11.52
2022-08-17T19:28:15.381Z,12.57
2022-08-17T19:30:55.704Z,13.05
2022-08-17T19:33:25.280Z,11.00
2022-08-17T19:36:02.519Z,11.38
2022-08-17T19:38:42.841Z,11.93
2022-08-17T19:41:20.898Z,12.57
2022-08-17T19:44:08.003Z,12.00
2022-08-17T19:46:48.634Z,12.40
2022-08-17T19:49:33.777Z,12.98
2022-08-17T19:52:24.264Z,11.90
2022-08-17T19:55:03.206Z,12.10
2022-08-17T19:57:42.909Z,11.90
2022-08-17T20:00:15.340Z,12.32
2022-08-17T20:02:54.503Z,11.98
2022-08-17T20:05:27.109Z,11.55
2022-08-17T20:08:00.436Z,10.90
2022-08-17T20:10:40.608Z,11.35
2022-08-17T20:13:13.036Z,11.50
2022-08-17T20:15:43.956Z,12.13
2022-08-17T20:18:21.123Z,11.70
2022-08-17T20:20:57.990Z,11.50
2022-08-17T20:23:42.444Z,12.52
2022-08-17T20:26:19.726Z,11.93
2022-08-17T20:29:36.801Z,12.80
2022-08-17T20:32:15.645Z,12.27
2022-08-17T20:34:47.803Z,12.07
2022-08-17T20:37:35.310Z,11.63
2022-08-17T20:40:21.487Z,12.02
2022-08-17T20:42:51.614Z,12.13
2022-08-17T20:45:57.892Z,12.40
2022-08-17T20:48:38.448Z,11.88
2022-08-17T20:51:20.350Z,12.13
2022-08-17T20:54:16.413Z,12.20
2022-08-17T20:56:57.901Z,11.75
2022-08-17T21:00:05.746Z,12.50
2022-08-17T21:02:37.249Z,11.57
2022-08-17T21:05:30.052Z,12.10
2022-08-17T21:08:01.661Z,12.07
2022-08-17T21:10:37.724Z,11.60
2022-08-17T21:13:42.143Z,12.63
2022-08-17T21:16:35.133Z,12.57
2022-08-17T21:19:17.026Z,11.98
2022-08-17T21:22:00.070Z,12.00
2022-08-17T21:24:49.393Z,12.20
2022-08-17T21:27:30.836Z,11.48
2022-08-17T21:30:21.918Z,12.07
2022-08-17T21:33:25.274Z,12.10
2022-08-17T21:36:16.258Z,12.02
2022-08-17T21:38:57.995Z,11.40
2022-08-17T21:41:29.920Z,11.93
2022-08-17T21:44:06.590Z,11.90
2022-08-17T21:46:40.025Z,11.65
2022-08-17T21:49:13.732Z,11.15
2022-08-17T21:54:35.817Z,11.32
2022-08-17T21:57:06.975Z,11.48
2022-08-17T21:59:39.423Z,11.68
2022-08-17T22:02:10.301Z,11.10
2022-08-17T22:04:41.126Z,10.35
2022-08-17T22:07:11.957Z,11.60
2022-08-17T22:09:45.999Z,11.05
2022-08-17T22:12:18.340Z,11.25
2022-08-17T22:14:57.581Z,12.07
2022-08-17T22:17:27.926Z,11.15
2022-08-17T22:19:59.893Z,11.80
2022-08-17T22:22:55.977Z,11.30
2022-08-17T22:25:27.502Z,11.23
2022-08-17T22:28:00.256Z,11.18
2022-08-17T22:30:35.144Z,11.48
2022-08-17T22:33:39.769Z,11.43
2022-08-17T22:36:29.237Z,11.20
2022-08-17T22:39:00.186Z,11.10
2022-08-17T22:41:42.342Z,11.18
2022-08-17T22:44:24.570Z,10.88
2022-08-17T22:47:00.193Z,11.23
2022-08-17T22:49:36.734Z,10.70
2022-08-17T22:52:18.711Z,10.63
2022-08-17T22:55:09.222Z,9.52
2022-08-17T22:58:04.286Z,9.65
2022-08-17T23:00:37.627Z,9.65
2022-08-17T23:03:16.353Z,9.93
2022-08-17T23:08:21.438Z,9.52
2022-08-17T23:10:50.382Z,8.98
2022-08-17T23:13:18.928Z,9.13
2022-08-17T23:15:48.321Z,9.55
2022-08-17T23:18:17.661Z,9.00
2022-08-17T23:20:47.993Z,8.70
2022-08-17T23:23:18.793Z,7.97
2022-08-17T23:25:50.918Z,8.90
2022-08-17T23:30:49.366Z,8.48
2022-08-17T23:33:21.929Z,8.80
2022-08-17T23:35:52.151Z,8.13
2022-08-17T23:38:20.792Z,8.80
2022-08-17T23:40:49.421Z,8.32
2022-08-17T23:43:25.284Z,8.20
2022-08-17T23:45:57.648Z,8.45
2022-08-17T23:48:36.089Z,7.38
2022-08-17T23:51:12.127Z,7.90
2022-08-17T23:53:44.236Z,7.85
2022-08-17T23:56:12.849Z,7.75
2022-08-17T23:58:43.330Z,7.40
